Latest Weather Observations for Darwin Harbour

IDD60801

Issued at 4:31 pm CST Monday 6 July 2015 (issued every 30 minutes, with the page automatically refreshed every 10 minutes)

About weather observations | Map of weather stations | Latest weather observations for NT | Other Formats
Station Details ID: 014072 Name: DARWIN NTC AWS Lat: -12.47 Lon: 130.85 Height: 0.0 m
Data from the previous 72 hours. | See also: Recent months for locations in Northern Territory
Date/Time
CST
Temp
°C
App
Temp
°C
Dew
Point
Rel
Hum
%
Delta-T
°C
Wind Press
QNH
hPa
Press
MSL
hPa
Rain
since 9 am
mm
Dir
 
Spd
km/h
Gust
km/h
Spd
kts
Gust
kts
06/04:30pm 29.5 - - - - NNE 7 20 4 11 1009.2 1009.1 -
06/04:00pm 29.6 - - - - ENE 4 9 2 5 1009.3 1009.2 -
06/03:30pm 29.5 - - - - ESE 15 20 8 11 1009.4 1009.3 -
06/03:00pm 28.7 - - - - ESE 17 20 9 11 1009.3 1009.2 -
06/02:30pm 28.9 - - - - ESE 20 26 11 14 1009.7 1009.6 -
06/02:00pm 28.8 - - - - E 28 39 15 21 1010.0 1009.9 -
06/01:30pm 28.4 - - - - ESE 30 43 16 23 1010.5 1010.4 -
06/01:00pm 28.3 - - - - E 30 39 16 21 1011.2 1011.1 -
06/12:30pm 28.1 - - - - E 28 35 15 19 1011.7 1011.6 -
06/12:00pm 27.7 - - - - ENE 28 39 15 21 1012.0 1011.9 -
06/11:30am 27.1 - - - - E 32 39 17 21 1012.2 1012.1 -
06/11:00am 26.5 - - - - E 32 43 17 23 1012.6 1012.5 -
06/10:30am 26.0 - - - - E 32 41 17 22 1013.0 1012.9 -
06/10:00am 25.6 - - - - E 33 41 18 22 1013.3 1013.3 -
06/09:30am 25.1 - - - - E 37 46 20 25 1013.2 1013.2 -
06/09:00am 24.8 - - - - ENE 35 43 19 23 1012.9 1012.8 -
06/08:30am 24.3 - - - - ENE 22 33 12 18 1013.1 1013.1 -
06/08:00am 23.1 - - - - ENE 19 28 10 15 1013.0 1012.9 -
06/07:30am 22.9 - - - - ENE 17 26 9 14 1012.8 1012.7 -
06/07:00am 22.8 - - - - ENE 9 19 5 10 1012.6 1012.5 -
06/06:30am 23.1 - - - - ENE 6 15 3 8 1012.3 1012.2 -
06/06:00am 23.1 - - - - NE 6 13 3 7 1012.2 1012.1 -
06/05:30am 23.2 - - - - NE 7 13 4 7 1012.3 1012.2 -
06/05:00am 22.8 - - - - NE 4 9 2 5 1012.1 1012.0 -
06/04:30am 22.5 - - - - NE 6 9 3 5 1011.8 1011.7 -
06/04:00am 23.1 - - - - ENE 6 9 3 5 1011.7 1011.6 -
06/03:30am 23.4 - - - - ENE 4 9 2 5 1011.7 1011.6 -
06/03:00am 23.7 - - - - NNE 9 15 5 8 1011.8 1011.7 -
06/02:30am 23.2 - - - - NE 7 13 4 7 1012.0 1011.9 -
06/02:00am 24.4 - - - - SW 2 6 1 3 1011.9 1011.8 -
06/01:30am 24.8 - - - - SW 13 17 7 9 1011.8 1011.7 -
06/01:00am 24.7 - - - - SW 15 17 8 9 1011.8 1011.7 -
06/12:30am 25.3 - - - - SW 9 13 5 7 1012.0 1011.9 -
06/12:00am 25.5 - - - - SW 9 11 5 6 1012.1 1012.0 -
 
Date/Time
CST
Temp
°C
App
Temp
°C
Dew
Point
Rel
Hum
%
Delta-T
°C
Wind Press
QNH
hPa
Press
MSL
hPa
Rain
since 9 am
mm
Dir
 
Spd
km/h
Gust
km/h
Spd
kts
Gust
kts
05/11:30pm 25.6 - - - - WSW 7 11 4 6 1012.4 1012.3 -
05/11:00pm 25.4 - - - - WNW 4 6 2 3 1012.7 1012.6 -
05/10:30pm 25.2 - - - - WNW 4 6 2 3 1012.9 1012.8 -
05/10:00pm 25.3 - - - - WNW 2 6 1 3 1013.1 1013.1 -
05/09:30pm 25.4 - - - - WNW 4 6 2 3 1013.1 1013.1 -
05/09:00pm 25.1 - - - - WSW 9 11 5 6 1013.0 1012.9 -
05/08:30pm 25.8 - - - - WNW 6 9 3 5 1012.7 1012.6 -
05/08:00pm 25.8 - - - - N 4 9 2 5 1012.4 1012.3 -
05/07:30pm 25.8 - - - - NNW 6 13 3 7 1012.0 1011.9 -
05/07:00pm 25.7 - - - - NW 9 17 5 9 1011.9 1011.8 -
05/06:30pm 25.8 - - - - NW 11 17 6 9 1011.8 1011.7 -
05/06:00pm 25.8 - - - - WNW 13 20 7 11 1011.5 1011.4 -
05/05:30pm 26.1 - - - - WNW 13 22 7 12 1011.3 1011.2 -
05/05:00pm 27.6 - - - - NNW 9 15 5 8 1011.1 1011.0 -
05/04:30pm 27.3 - - - - WNW 11 15 6 8 1011.2 1011.1 -
05/04:00pm 27.2 - - - - WNW 9 17 5 9 1011.1 1011.0 -
05/03:30pm 27.1 - - - - W 7 11 4 6 1011.3 1011.2 -
05/03:00pm 27.2 - - - - WNW 9 15 5 8 1011.7 1011.6 -
05/02:30pm 26.6 - - - - WNW 9 13 5 7 1012.1 1012.0 -
05/02:00pm 26.6 - - - - WNW 11 17 6 9 1012.6 1012.5 -
05/01:30pm 26.3 - - - - SW 6 13 3 7 1012.8 1012.7 -
05/01:00pm 26.8 - - - - SSW 4 9 2 5 1013.2 1013.2 -
05/12:30pm 26.5 - - - - S 4 9 2 5 1013.6 1013.6 -
05/12:00pm 26.1 - - - - SSE 6 11 3 6 1014.1 1014.1 -
05/11:30am 25.3 - - - - SE 11 13 6 7 1014.6 1014.6 -
05/11:00am 25.5 - - - - ENE 6 13 3 7 1014.8 1014.8 -
05/10:30am 24.3 - - - - ESE 9 17 5 9 1014.8 1014.8 -
05/10:00am 22.8 - - - - ESE 13 17 7 9 1014.9 1014.9 -
05/09:30am 22.3 - - - - SE 15 20 8 11 1014.9 1014.9 -
05/09:00am 21.7 - - - - SE 13 17 7 9 1015.0 1015.0 -
05/08:30am 22.0 - - - - SE 13 17 7 9 1015.0 1015.0 -
05/08:00am 21.9 - - - - ESE 11 17 6 9 1014.7 1014.7 -
05/07:30am 21.9 - - - - ESE 15 20 8 11 1014.4 1014.4 -
05/07:00am 21.8 - - - - SE 22 30 12 16 1013.9 1013.9 -
05/06:30am 22.4 - - - - SSE 7 17 4 9 1013.5 1013.5 -
05/06:00am 22.9 - - - - SW 6 9 3 5 1013.2 1013.2 -
05/05:30am 22.7 - - - - SSE 4 7 2 4 1013.1 1013.1 -
05/05:00am 23.0 - - - - SW 6 9 3 5 1012.9 1012.8 -
05/04:30am 23.0 - - - - SW 6 11 3 6 1012.7 1012.6 -
05/04:00am 22.4 - - - - ESE 4 6 2 3 1012.7 1012.6 -
05/03:30am 22.0 - - - - ENE 4 7 2 4 1012.7 1012.6 -
05/03:00am 23.6 - - - - SW 9 13 5 7 1012.6 1012.5 -
05/02:30am 24.0 - - - - WSW 9 11 5 6 1012.6 1012.5 -
05/02:00am 24.3 - - - - WSW 9 11 5 6 1012.7 1012.6 -
05/01:30am 24.6 - - - - WSW 11 13 6 7 1012.9 1012.8 -
05/01:00am 24.7 - - - - WSW 11 13 6 7 1013.1 1013.1 -
05/12:30am 24.8 - - - - WSW 9 13 5 7 1013.1 1013.1 -
05/12:00am 24.8 - - - - W 7 9 4 5 1013.1 1013.1 -
 
Date/Time
CST
Temp
°C
App
Temp
°C
Dew
Point
Rel
Hum
%
Delta-T
°C
Wind Press
QNH
hPa
Press
MSL
hPa
Rain
since 9 am
mm
Dir
 
Spd
km/h
Gust
km/h
Spd
kts
Gust
kts
04/11:30pm 24.8 - - - - W 9 11 5 6 1013.3 1013.3 -
04/11:00pm 24.7 - - - - W 4 9 2 5 1013.4 1013.4 -
04/10:30pm 24.8 - - - - W 6 11 3 6 1013.4 1013.4 -
04/10:00pm 24.9 - - - - W 6 9 3 5 1013.5 1013.5 -
04/09:30pm 25.0 - - - - W 7 11 4 6 1013.4 1013.4 -
04/09:00pm 25.1 - - - - W 9 13 5 7 1013.1 1013.1 -
04/08:30pm 25.4 - - - - W 7 13 4 7 1012.7 1012.6 -
04/08:00pm 25.5 - - - - WNW 7 11 4 6 1012.4 1012.3 -
04/07:30pm 25.6 - - - - NW 7 13 4 7 1012.1 1012.0 -
04/07:00pm 25.6 - - - - NW 7 15 4 8 1011.8 1011.7 -
04/06:30pm 25.8 - - - - NW 9 19 5 10 1011.4 1011.3 -
04/06:00pm 26.3 - - - - NW 11 20 6 11 1011.0 1010.9 -
04/05:30pm 26.4 - - - - WNW 15 26 8 14 1010.7 1010.6 -
04/05:00pm 28.0 - - - - NNW 7 15 4 8 1010.0 1009.9 -
04/04:30pm 27.7 - - - - WNW 6 15 3 8 1010.2 1010.1 -
04/04:00pm 28.0 - - - - NW 7 17 4 9 1010.1 1010.0 -
04/03:30pm 27.7 - - - - WNW 9 15 5 8 1010.4 1010.3 -
04/03:00pm 27.3 - - - - WNW 13 19 7 10 1010.7 1010.6 -
04/02:30pm 28.0 - - - - WSW 7 15 4 8 1011.1 1011.0 -
04/02:00pm 28.8 - - - - ENE 6 13 3 7 1011.6 1011.5 -
04/01:30pm 27.8 - - - - SE 9 17 5 9 1012.0 1011.9 -
04/01:00pm 27.6 - - - - SE 11 15 6 8 1012.5 1012.4 -
04/12:30pm 27.3 - - - - ESE 11 19 6 10 1012.9 1012.8 -
04/12:00pm 27.2 - - - - ENE 11 22 6 12 1013.4 1013.4 -
04/11:30am 26.6 - - - - ENE 17 26 9 14 1013.9 1013.9 -
04/11:00am 25.9 - - - - ENE 26 33 14 18 1014.2 1014.2 -
04/10:30am 25.1 - - - - ENE 22 28 12 15 1014.5 1014.5 -
04/10:00am 24.4 - - - - ENE 22 30 12 16 1014.9 1014.9 -
04/09:30am 23.7 - - - - ENE 9 20 5 11 1015.2 1015.2 -
04/09:00am 22.7 - - - - ENE 13 22 7 12 1015.3 1015.3 -
04/08:30am 21.8 - - - - E 17 22 9 12 1015.0 1015.0 -
04/08:00am 21.8 - - - - ENE 17 22 9 12 1014.6 1014.6 -
04/07:30am 22.0 - - - - ENE 9 17 5 9 1014.3 1014.3 -
04/07:00am 21.4 - - - - ENE 11 19 6 10 1014.1 1014.1 -
04/06:30am 21.0 - - - - ENE 11 17 6 9 1013.9 1013.9 -
04/06:00am 21.3 - - - - ENE 11 20 6 11 1013.9 1013.9 -
04/05:30am 20.9 - - - - ENE 19 32 10 17 1013.8 1013.8 -
04/05:00am 23.0 - - - - ESE 11 22 6 12 1013.4 1013.4 -
04/04:30am 23.2 - - - - SE 17 22 9 12 1013.2 1013.2 -
04/04:00am 23.4 - - - - SE 15 20 8 11 1013.3 1013.3 -
04/03:30am 23.7 - - - - SE 15 19 8 10 1013.4 1013.4 -
04/03:00am 24.1 - - - - ESE 15 20 8 11 1013.6 1013.6 -
04/02:30am 24.3 - - - - ESE 9 13 5 7 1013.8 1013.8 -
04/02:00am 24.6 - - - - SE 9 13 5 7 1013.8 1013.8 -
04/01:30am 24.8 - - - - SE 9 13 5 7 1014.0 1014.0 -
04/01:00am 25.4 - - - - SE 11 17 6 9 1013.9 1013.9 -
04/12:30am 25.7 - - - - SE 9 13 5 7 1013.8 1013.8 -
04/12:00am 26.0 - - - - SE 9 13 5 7 1013.9 1013.9 -
 
Date/Time
CST
Temp
°C
App
Temp
°C
Dew
Point
Rel
Hum
%
Delta-T
°C
Wind Press
QNH
hPa
Press
MSL
hPa
Rain
since 9 am
mm
Dir
 
Spd
km/h
Gust
km/h
Spd
kts
Gust
kts
03/11:30pm 26.0 - - - - SE 7 9 4 5 1013.9 1013.9 -
03/11:00pm 25.3 - - - - SE 4 9 2 5 1014.1 1014.1 -
03/10:30pm 25.4 - - - - SE 4 6 2 3 1014.2 1014.2 -
03/10:00pm 25.3 - - - - WNW 2 4 1 2 1014.0 1014.0 -
03/09:30pm 25.1 - - - - E 2 4 1 2 1013.5 1013.5 -
03/09:00pm 25.3 - - - - ENE 6 9 3 5 1013.3 1013.3 -
03/08:30pm 25.5 - - - - ENE 7 13 4 7 1013.0 1012.9 -
03/08:00pm 25.8 - - - - NE 6 15 3 8 1012.6 1012.5 -
03/07:30pm 26.1 - - - - NE 7 15 4 8 1012.2 1012.1 -
03/07:00pm 26.7 - - - - NNE 11 17 6 9 1012.0 1011.9 -
03/06:30pm 27.1 - - - - NNE 11 19 6 10 1011.7 1011.6 -
03/06:00pm 28.2 - - - - N 9 15 5 8 1011.4 1011.3 -
03/05:30pm 28.5 - - - - NNE 6 15 3 8 1011.2 1011.1 -
03/05:00pm 29.4 - - - - NW 7 11 4 6 1011.1 1011.0 -

Other Formats:

Comma delimited format used in spreadsheet applications
http://www.bom.gov.au/fwo/IDD60801/IDD60801.95122.axf

JavaScript Object Notation format (JSON) in row-major order
http://www.bom.gov.au/fwo/IDD60801/IDD60801.95122.json